Saranac Lake, NY

10:30 AM EST on January 30, 2015 (GMT -0500)
North Country Community College | Change Station
CLOSE
Current Station
Personal Weather Station
Location: Saranac Lake, NY
Elevation: 1600 ft
Nearby Weather Stations

Elev 1600 ft 44.32 °N, 74.12 °W | Updated 3 seconds ago

Snow
Snow
20.2 °F
Feels Like 20 °F
N
0.0
Wind Variable Wind from WNW
Gusts 5.0 mph

Today
High -- | Low -- °F
--% Chance of Precip.
Yesterday
High -- | Low -- °F
Precip. -- in
7:17 AM 5:03 PM
Waxing Gibbous, 83% visible
Pressure 29.87 in
Visibility 1.2 miles
Clouds Few 900 ft
Overcast 1700 ft
Windchill 20 °F
Dew Point 18 °F
Humidity 92%
Rainfall 0.00 in
Snow Depth Not available.
UV 0 out of 12
Pollen .10 out of 12
Air Quality Not available.
Flu Activity Not available.
METAR KPBG 301453Z AUTO 34010KT 1 1/4SM -SN BR FEW009 OVC017 M03/M05 A2986 RMK AO2 SLP114 P0001 60002 T10281050 53021

More Conditions Fewer Conditions

Pressure 29.87 in
Visibility 1.2 miles
Clouds Few 900 ft
Overcast 1700 ft
Windchill 20 °F
Dew Point 18 °F
Humidity 92%
Rainfall 0.00 in
Snow Depth Not available.
UV 0 out of 12
Pollen .10 out of 12
Air Quality Not available.
Flu Activity Not available.
METAR KPBG 301453Z AUTO 34010KT 1 1/4SM -SN BR FEW009 OVC017 M03/M05 A2986 RMK AO2 SLP114 P0001 60002 T10281050 53021

More Conditions Fewer Conditions

10-Day Weather Forecast

Almanac

Astronomy

Jan. 30, 2015 Rise Set
Actual Time
Civil Twilight
Nautical Twilight
Astronomical Twilight
Moon
Length of Visible Light
Length of Day
Tomorrow will be .
, % of the Moon is Illuminated

Today's Extremes

State Highs State Lows

Community

WunderPhotos

Upload Photos

1,791,791 photos uploaded!

WunderBlogs® & News

Nearby

Air Quality

  Air Quality AQ Index Pollutant
Not available.

Snow Depth

Station Depth Elevation

Earthquake Activity

City Distance Mag. Time & Date
Minimum magnitude displayed is 2.5.

Coastal Water Temperatures

Place Temperature

Nearby Weather Stations